Time,TemperatureF,DewpointF,PressureIn,WindDirection,WindDirectionDegrees,WindSpeedMPH,WindSpeedGustMPH,Humidity,HourlyPrecipIn,Conditions,Clouds,dailyrainin,SolarRadiationWatts/m^2,SoftwareType,DateUTC
2014-01-07 00:00:00,5.8,-5.1,30.59,WNW,291,2.0,8.0,60,0.00,CLR,CLR,0.00,0.0,WeatherDisplay:10.37,2014-01-07 06:00:00,
2014-01-07 00:10:00,5.7,-4.9,30.59,WNW,295,3.0,7.0,61,0.00,CLR,CLR,0.00,0.0,WeatherDisplay:10.37,2014-01-07 06:10:00,
2014-01-07 00:20:00,5.6,-4.6,30.59,WNW,294,2.0,9.0,62,0.00,CLR,CLR,0.00,0.0,WeatherDisplay:10.37,2014-01-07 06:20:00,
2014-01-07 00:30:00,5.5,-4.7,30.59,WNW,302,5.0,8.0,62,0.00,CLR,CLR,0.00,0.0,WeatherDisplay:10.37,2014-01-07 06:30:00,
2014-01-07 00:40:00,5.4,-4.8,30.58,NW,311,3.0,9.0,62,0.00,CLR,CLR,0.00,0.0,WeatherDisplay:10.37,2014-01-07 06:40:00,
2014-01-07 00:50:00,5.3,-4.9,30.58,NW,309,3.0,6.0,62,0.00,CLR,CLR,0.00,0.0,WeatherDisplay:10.37,2014-01-07 06:50:00,
2014-01-07 01:00:00,5.2,-5.0,30.58,WNW,303,3.0,5.0,62,0.00,CLR,CLR,0.00,0.0,WeatherDisplay:10.37,2014-01-07 07:00:00,
2014-01-07 01:10:00,5.2,-5.7,30.58,NW,309,6.0,7.0,60,0.00,CLR,CLR,0.00,0.0,WeatherDisplay:10.37,2014-01-07 07:10:00,
2014-01-07 01:20:00,5.2,-5.7,30.58,NW,309,3.0,8.0,60,0.00,CLR,CLR,0.00,0.0,WeatherDisplay:10.37,2014-01-07 07:20:00,
2014-01-07 01:30:00,5.1,-5.8,30.58,NW,316,5.0,10.0,60,0.00,CLR,CLR,0.00,0.0,WeatherDisplay:10.37,2014-01-07 07:30:00,
2014-01-07 01:40:00,5.0,-5.5,30.57,NW,326,3.0,7.0,61,0.00,CLR,CLR,0.00,0.0,WeatherDisplay:10.37,2014-01-07 07:40:00,
2014-01-07 01:50:00,5.0,-5.5,30.57,NNW,333,5.0,9.0,61,0.00,CLR,CLR,0.00,0.0,WeatherDisplay:10.37,2014-01-07 07:50:00,
2014-01-07 02:00:00,5.0,-5.2,30.57,NNW,334,3.0,9.0,62,0.00,CLR,CLR,0.00,0.0,WeatherDisplay:10.37,2014-01-07 08:00:00,
2014-01-07 02:10:00,4.9,-4.9,30.58,NW,320,3.0,10.0,63,0.00,CLR,CLR,0.00,0.0,WeatherDisplay:10.37,2014-01-07 08:10:00,
2014-01-07 02:20:00,4.9,-5.3,30.58,NW,310,5.0,9.0,62,0.00,CLR,CLR,0.00,0.0,WeatherDisplay:10.37,2014-01-07 08:20:00,
2014-01-07 02:30:00,5.0,-5.9,30.58,NW,313,2.0,7.0,60,0.00,CLR,CLR,0.00,0.0,WeatherDisplay:10.37,2014-01-07 08:30:00,
2014-01-07 02:40:00,5.0,-5.9,30.57,NW,314,1.0,7.0,60,0.00,CLR,CLR,0.00,0.0,WeatherDisplay:10.37,2014-01-07 08:40:00,
2014-01-07 02:50:00,5.0,-5.2,30.58,WNW,285,1.0,5.0,62,0.00,CLR,CLR,0.00,0.0,WeatherDisplay:10.37,2014-01-07 08:50:00,
2014-01-07 03:00:00,4.7,-4.8,30.58,WSW,248,1.0,4.0,64,0.00,CLR,CLR,0.00,0.0,WeatherDisplay:10.37,2014-01-07 09:00:00,
2014-01-07 03:10:00,4.2,-4.3,30.58,SW,218,0.0,2.0,67,0.00,CLR,CLR,0.00,0.0,WeatherDisplay:10.37,2014-01-07 09:10:00,
2014-01-07 03:20:00,3.7,-3.3,30.58,SW,222,0.0,1.0,72,0.00,CLR,CLR,0.00,0.0,WeatherDisplay:10.37,2014-01-07 09:20:00,
2014-01-07 03:30:00,3.5,-3.2,30.58,SW,221,0.0,2.0,73,0.00,CLR,CLR,0.00,0.0,WeatherDisplay:10.37,2014-01-07 09:30:00,
2014-01-07 03:40:00,3.4,-3.6,30.59,SW,224,0.0,2.0,72,0.00,CLR,CLR,0.00,0.0,WeatherDisplay:10.37,2014-01-07 09:40:00,
2014-01-07 03:50:00,3.3,-3.1,30.60,SW,217,0.0,1.0,74,0.00,CLR,CLR,0.00,0.0,WeatherDisplay:10.37,2014-01-07 09:50:00,
2014-01-07 04:00:00,3.2,-3.8,30.59,SW,223,0.0,1.0,72,0.00,CLR,CLR,0.00,0.0,WeatherDisplay:10.37,2014-01-07 10:00:00,
2014-01-07 04:10:00,3.2,-3.8,30.58,SSW,209,0.0,1.0,72,0.00,CLR,CLR,0.00,0.0,WeatherDisplay:10.37,2014-01-07 10:10:00,
2014-01-07 04:20:00,3.1,-3.3,30.58,SSW,208,0.0,33.0,74,0.00,CLR,CLR,0.00,0.0,WeatherDisplay:10.37,2014-01-07 10:20:00,
2014-01-07 04:30:00,2.9,-3.2,30.58,SSW,205,0.0,0.0,75,0.00,CLR,CLR,0.00,0.0,WeatherDisplay:10.37,2014-01-07 10:30:00,
2014-01-07 04:40:00,3.1,-3.1,30.58,SSW,199,0.0,2.0,75,0.00,CLR,CLR,0.00,0.0,WeatherDisplay:10.37,2014-01-07 10:40:00,
2014-01-07 04:50:00,3.0,-2.6,30.57,SSW,192,1.0,2.0,77,0.00,CLR,CLR,0.00,0.0,WeatherDisplay:10.37,2014-01-07 10:50:00,
2014-01-07 05:00:00,3.2,-2.4,30.58,SSW,207,1.0,3.0,77,0.00,CLR,CLR,0.00,0.0,WeatherDisplay:10.37,2014-01-07 11:00:00,
2014-01-07 05:10:00,3.5,-2.1,30.58,SSW,202,1.0,3.0,77,0.00,CLR,CLR,0.00,0.0,WeatherDisplay:10.37,2014-01-07 11:10:00,
2014-01-07 05:20:00,3.6,-2.0,30.58,SSW,209,2.0,3.0,77,0.00,CLR,CLR,0.00,0.0,WeatherDisplay:10.37,2014-01-07 11:20:00,
2014-01-07 05:30:00,3.8,-2.1,30.59,SSW,206,1.0,5.0,76,0.00,CLR,CLR,0.00,0.0,WeatherDisplay:10.37,2014-01-07 11:30:00,
2014-01-07 05:40:00,3.9,-2.0,30.58,South,191,1.0,4.0,76,0.00,CLR,CLR,0.00,0.0,WeatherDisplay:10.37,2014-01-07 11:40:00,
2014-01-07 05:50:00,3.9,-2.3,30.58,SSW,200,1.0,5.0,75,0.00,CLR,CLR,0.00,0.0,WeatherDisplay:10.37,2014-01-07 11:50:00,
2014-01-07 06:00:00,3.9,-2.3,30.58,SSW,193,2.0,4.0,75,0.00,CLR,CLR,0.00,0.0,WeatherDisplay:10.37,2014-01-07 12:00:00,
2014-01-07 06:10:00,4.0,-2.2,30.58,SSW,204,1.0,5.0,75,0.00,CLR,CLR,0.00,0.0,WeatherDisplay:10.37,2014-01-07 12:10:00,
2014-01-07 06:20:00,4.1,-2.1,30.58,SSW,200,2.0,5.0,75,0.00,CLR,CLR,0.00,0.0,WeatherDisplay:10.37,2014-01-07 12:20:00,
2014-01-07 06:30:00,4.3,-1.8,30.57,South,171,3.0,5.0,75,0.00,CLR,CLR,0.00,0.0,WeatherDisplay:10.37,2014-01-07 12:30:00,
2014-01-07 06:40:00,4.4,-2.1,30.57,South,191,1.0,3.0,74,0.00,CLR,CLR,0.00,0.0,WeatherDisplay:10.37,2014-01-07 12:40:00,
2014-01-07 06:50:00,4.4,-1.5,30.57,SSW,199,1.0,3.0,76,0.00,CLR,CLR,0.00,0.0,WeatherDisplay:10.37,2014-01-07 12:50:00,
2014-01-07 07:00:00,4.5,-1.4,30.58,SE,144,1.0,2.0,76,0.00,CLR,CLR,0.00,0.0,WeatherDisplay:10.37,2014-01-07 13:00:00,
2014-01-07 07:10:00,4.6,-1.0,30.57,SSE,151,1.0,5.0,77,0.00,CLR,CLR,0.00,0.0,WeatherDisplay:10.37,2014-01-07 13:10:00,
2014-01-07 07:20:00,4.8,-0.8,30.57,SSE,159,1.0,5.0,77,0.00,CLR,CLR,0.00,0.0,WeatherDisplay:10.37,2014-01-07 13:20:00,
2014-01-07 07:30:00,5.5,-0.5,30.57,South,184,2.0,5.0,76,0.00,CLR,CLR,0.00,0.0,WeatherDisplay:10.37,2014-01-07 13:30:00,
2014-01-07 07:40:00,6.1,0.2,30.57,South,170,2.0,6.0,76,0.00,CLR,CLR,0.00,0.0,WeatherDisplay:10.37,2014-01-07 13:40:00,
2014-01-07 07:50:00,6.5,0.0,30.58,South,191,5.0,9.0,74,0.00,CLR,CLR,0.00,0.0,WeatherDisplay:10.37,2014-01-07 13:50:00,
2014-01-07 08:00:00,7.1,0.3,30.58,SSW,197,3.0,6.0,73,0.00,CLR,CLR,0.00,0.0,WeatherDisplay:10.37,2014-01-07 14:00:00,
2014-01-07 08:10:00,7.6,0.5,30.58,SW,217,3.0,5.0,72,0.00,CLR,CLR,0.00,0.0,WeatherDisplay:10.37,2014-01-07 14:10:00,
2014-01-07 08:20:00,7.9,0.1,30.58,SSW,206,2.0,6.0,70,0.00,CLR,CLR,0.00,0.0,WeatherDisplay:10.37,2014-01-07 14:20:00,
2014-01-07 08:30:00,8.5,0.1,30.58,SSW,203,3.0,7.0,68,0.00,CLR,CLR,0.00,0.0,WeatherDisplay:10.37,2014-01-07 14:30:00,
2014-01-07 08:40:00,8.9,0.2,30.58,SSW,212,3.0,7.0,67,0.00,CLR,CLR,0.00,0.0,WeatherDisplay:10.37,2014-01-07 14:40:00,
2014-01-07 08:50:00,9.5,0.4,30.58,SSW,212,3.0,6.0,66,0.00,CLR,CLR,0.00,0.0,WeatherDisplay:10.37,2014-01-07 14:50:00,
2014-01-07 09:00:00,10.1,0.7,30.59,SSW,199,3.0,6.0,65,0.00,CLR,CLR,0.00,0.0,WeatherDisplay:10.37,2014-01-07 15:00:00,
2014-01-07 09:10:00,10.6,0.5,30.59,SW,218,5.0,8.0,63,0.00,CLR,CLR,0.00,0.0,WeatherDisplay:10.37,2014-01-07 15:10:00,
2014-01-07 09:20:00,11.0,0.8,30.59,SSW,199,6.0,8.0,63,0.00,CLR,CLR,0.00,0.0,WeatherDisplay:10.37,2014-01-07 15:20:00,
2014-01-07 09:30:00,11.4,0.9,30.60,SSW,207,5.0,10.0,62,0.00,CLR,CLR,0.00,0.0,WeatherDisplay:10.37,2014-01-07 15:30:00,
2014-01-07 09:40:00,11.7,0.9,30.60,SSW,207,3.0,8.0,61,0.00,CLR,CLR,0.00,0.0,WeatherDisplay:10.37,2014-01-07 15:40:00,
2014-01-07 09:50:00,12.8,1.5,30.59,SSW,205,8.0,9.0,60,0.00,CLR,CLR,0.00,0.0,WeatherDisplay:10.37,2014-01-07 15:50:00,
2014-01-07 10:00:00,13.0,2.0,30.59,South,191,6.0,8.0,61,0.00,CLR,CLR,0.00,0.0,WeatherDisplay:10.37,2014-01-07 16:00:00,
2014-01-07 10:10:00,13.4,1.7,30.59,SSW,198,5.0,12.0,59,0.00,CLR,CLR,0.00,0.0,WeatherDisplay:10.37,2014-01-07 16:10:00,
2014-01-07 10:20:00,13.9,2.6,30.58,South,189,7.0,12.0,60,0.00,CLR,CLR,0.00,0.0,WeatherDisplay:10.37,2014-01-07 16:20:00,
2014-01-07 10:30:00,14.2,2.1,30.58,SSW,211,7.0,12.0,58,0.00,CLR,CLR,0.00,0.0,WeatherDisplay:10.37,2014-01-07 16:30:00,
2014-01-07 10:40:00,14.7,2.6,30.57,South,176,6.0,13.0,58,0.00,CLR,CLR,0.00,0.0,WeatherDisplay:10.37,2014-01-07 16:40:00,
2014-01-07 10:50:00,15.2,2.3,30.57,SSW,195,5.0,8.0,56,0.00,CLR,CLR,0.00,0.0,WeatherDisplay:10.37,2014-01-07 16:50:00,
2014-01-07 11:00:00,15.9,3.7,30.57,South,180,7.0,10.0,58,0.00,CLR,CLR,0.00,0.0,WeatherDisplay:10.37,2014-01-07 17:00:00,
2014-01-07 11:10:00,15.7,3.2,30.56,SSW,195,5.0,10.0,57,0.00,CLR,CLR,0.00,0.0,WeatherDisplay:10.37,2014-01-07 17:10:00,
2014-01-07 11:20:00,16.2,3.2,30.55,SSW,202,5.0,10.0,56,0.00,CLR,CLR,0.00,0.0,WeatherDisplay:10.37,2014-01-07 17:20:00,
2014-01-07 11:30:00,16.5,4.3,30.55,SSW,204,5.0,12.0,58,0.00,CLR,CLR,0.00,0.0,WeatherDisplay:10.37,2014-01-07 17:30:00,
2014-01-07 11:40:00,17.0,5.1,30.54,SSW,198,6.0,12.0,59,0.00,CLR,CLR,0.00,0.0,WeatherDisplay:10.37,2014-01-07 17:40:00,
2014-01-07 11:50:00,17.2,4.9,30.53,SSW,206,8.0,12.0,58,0.00,CLR,CLR,0.00,0.0,WeatherDisplay:10.37,2014-01-07 17:50:00,
2014-01-07 12:00:00,17.6,4.5,30.52,SW,215,6.0,12.0,56,0.00,CLR,CLR,0.00,0.0,WeatherDisplay:10.37,2014-01-07 18:00:00,
2014-01-07 12:10:00,17.6,3.8,30.51,SSW,194,7.0,14.0,54,0.00,CLR,CLR,0.00,0.0,WeatherDisplay:10.37,2014-01-07 18:10:00,
2014-01-07 12:20:00,18.1,5.0,30.50,SSW,202,8.0,13.0,56,0.00,CLR,CLR,0.00,0.0,WeatherDisplay:10.37,2014-01-07 18:20:00,
2014-01-07 12:30:00,18.7,6.7,30.49,SSW,200,7.0,13.0,59,0.00,CLR,CLR,0.00,0.0,WeatherDisplay:10.37,2014-01-07 18:30:00,
2014-01-07 12:40:00,19.0,6.3,30.48,SSW,194,7.0,14.0,57,0.00,CLR,CLR,0.00,0.0,WeatherDisplay:10.37,2014-01-07 18:40:00,
2014-01-07 12:50:00,19.2,5.7,30.48,SSW,195,7.0,12.0,55,0.00,CLR,CLR,0.00,0.0,WeatherDisplay:10.37,2014-01-07 18:50:00,
2014-01-07 13:00:00,19.7,6.9,30.48,South,190,9.0,13.0,57,0.00,CLR,CLR,0.00,0.0,WeatherDisplay:10.37,2014-01-07 19:00:00,
2014-01-07 13:10:00,20.3,7.9,30.47,South,189,8.0,14.0,58,0.00,CLR,CLR,0.00,0.0,WeatherDisplay:10.37,2014-01-07 19:10:00,
2014-01-07 13:20:00,20.6,7.4,30.47,South,180,6.0,14.0,56,0.00,CLR,CLR,0.00,0.0,WeatherDisplay:10.37,2014-01-07 19:20:00,
2014-01-07 13:30:00,20.9,8.1,30.46,South,184,9.0,16.0,57,0.00,CLR,CLR,0.00,0.0,WeatherDisplay:10.37,2014-01-07 19:30:00,
2014-01-07 13:40:00,21.1,7.5,30.45,South,178,6.0,15.0,55,0.00,CLR,CLR,0.00,0.0,WeatherDisplay:10.37,2014-01-07 19:40:00,
2014-01-07 13:50:00,21.5,8.2,30.45,SSW,202,9.0,16.0,56,0.00,CLR,CLR,0.00,0.0,WeatherDisplay:10.37,2014-01-07 19:50:00,
2014-01-07 14:00:00,21.7,8.4,30.45,South,191,8.0,17.0,56,0.00,CLR,CLR,0.00,0.0,WeatherDisplay:10.37,2014-01-07 20:00:00,
2014-01-07 14:10:00,22.0,8.3,30.44,SSW,194,9.0,14.0,55,0.00,CLR,CLR,0.00,0.0,WeatherDisplay:10.37,2014-01-07 20:10:00,
2014-01-07 14:20:00,22.2,8.5,30.45,South,170,8.0,16.0,55,0.00,CLR,CLR,0.00,0.0,WeatherDisplay:10.37,2014-01-07 20:20:00,
2014-01-07 14:30:00,22.4,9.1,30.45,SSW,197,9.0,13.0,56,0.00,CLR,CLR,0.00,0.0,WeatherDisplay:10.37,2014-01-07 20:30:00,
2014-01-07 14:40:00,22.6,8.8,30.45,SSW,203,10.0,16.0,55,0.00,CLR,CLR,0.00,0.0,WeatherDisplay:10.37,2014-01-07 20:40:00,
2014-01-07 14:50:00,22.7,9.3,30.44,SSW,206,12.0,20.0,56,0.00,CLR,CLR,0.00,0.0,WeatherDisplay:10.37,2014-01-07 20:50:00,
2014-01-07 15:00:00,22.8,9.5,30.44,South,188,9.0,17.0,56,0.00,CLR,CLR,0.00,0.0,WeatherDisplay:10.37,2014-01-07 21:00:00,
2014-01-07 15:10:00,23.4,9.6,30.43,SSW,195,10.0,16.0,55,0.00,CLR,CLR,0.00,0.0,WeatherDisplay:10.37,2014-01-07 21:10:00,
2014-01-07 15:20:00,23.6,9.8,30.44,SSW,193,10.0,15.0,55,0.00,CLR,CLR,0.00,0.0,WeatherDisplay:10.37,2014-01-07 21:20:00,
2014-01-07 15:30:00,23.6,9.8,30.43,SSW,200,9.0,16.0,55,0.00,CLR,CLR,0.00,0.0,WeatherDisplay:10.37,2014-01-07 21:30:00,
2014-01-07 15:40:00,23.7,9.5,30.42,SSW,198,10.0,15.0,54,0.00,CLR,CLR,0.00,0.0,WeatherDisplay:10.37,2014-01-07 21:40:00,
2014-01-07 15:50:00,23.7,9.5,30.42,South,191,10.0,17.0,54,0.00,CLR,CLR,0.00,0.0,WeatherDisplay:10.37,2014-01-07 21:50:00,
2014-01-07 16:00:00,23.8,10.4,30.41,South,190,7.0,17.0,56,0.00,CLR,CLR,0.00,0.0,WeatherDisplay:10.37,2014-01-07 22:00:00,
2014-01-07 16:10:00,23.6,9.8,30.41,South,176,8.0,15.0,55,0.00,CLR,CLR,0.00,0.0,WeatherDisplay:10.37,2014-01-07 22:10:00,
2014-01-07 16:20:00,23.5,10.9,30.41,South,189,7.0,15.0,58,0.00,CLR,CLR,0.00,0.0,WeatherDisplay:10.37,2014-01-07 22:20:00,
2014-01-07 16:30:00,23.4,11.2,30.41,SSW,198,8.0,21.0,59,0.00,CLR,CLR,0.00,0.0,WeatherDisplay:10.37,2014-01-07 22:30:00,
2014-01-07 16:40:00,23.1,10.9,30.41,South,190,8.0,16.0,59,0.00,CLR,CLR,0.00,0.0,WeatherDisplay:10.37,2014-01-07 22:40:00,
2014-01-07 16:50:00,22.8,10.6,30.41,SSW,192,9.0,17.0,59,0.00,CLR,CLR,0.00,0.0,WeatherDisplay:10.37,2014-01-07 22:50:00,
2014-01-07 17:00:00,22.3,10.5,30.41,South,190,7.0,14.0,60,0.00,CLR,CLR,0.00,0.0,WeatherDisplay:10.37,2014-01-07 23:00:00,
2014-01-07 17:10:00,22.1,11.1,30.41,South,174,6.0,15.0,62,0.00,CLR,CLR,0.00,0.0,WeatherDisplay:10.37,2014-01-07 23:10:00,
2014-01-07 17:20:00,21.9,11.2,30.41,South,180,6.0,13.0,63,0.00,CLR,CLR,0.00,0.0,WeatherDisplay:10.37,2014-01-07 23:20:00,
2014-01-07 17:30:00,21.7,10.7,30.41,South,176,7.0,12.0,62,0.00,CLR,CLR,0.00,0.0,WeatherDisplay:10.37,2014-01-07 23:30:00,
2014-01-07 17:40:00,21.6,10.9,30.41,SSW,193,6.0,13.0,63,0.00,CLR,CLR,0.00,0.0,WeatherDisplay:10.37,2014-01-07 23:40:00,
2014-01-07 17:50:00,21.6,10.9,30.41,South,181,6.0,12.0,63,0.00,CLR,CLR,0.00,0.0,WeatherDisplay:10.37,2014-01-07 23:50:00,
2014-01-07 18:00:00,21.5,10.8,30.40,South,176,5.0,12.0,63,0.00,CLR,CLR,0.00,0.0,WeatherDisplay:10.37,2014-01-08 00:00:00,
2014-01-07 18:10:00,21.3,11.0,30.40,South,182,5.0,8.0,64,0.00,CLR,CLR,0.00,0.0,WeatherDisplay:10.37,2014-01-08 00:10:00,
2014-01-07 18:20:00,21.3,11.0,30.40,South,172,3.0,9.0,64,0.00,CLR,CLR,0.00,0.0,WeatherDisplay:10.37,2014-01-08 00:20:00,
2014-01-07 18:30:00,21.3,11.4,30.40,South,172,3.0,10.0,65,0.00,CLR,CLR,0.00,0.0,WeatherDisplay:10.37,2014-01-08 00:30:00,
2014-01-07 18:40:00,21.2,11.3,30.40,South,178,3.0,8.0,65,0.00,CLR,CLR,0.00,0.0,WeatherDisplay:10.37,2014-01-08 00:40:00,
2014-01-07 18:50:00,21.1,11.2,30.39,South,189,5.0,8.0,65,0.00,CLR,CLR,0.00,0.0,WeatherDisplay:10.37,2014-01-08 00:50:00,
2014-01-07 19:00:00,21.1,11.5,30.39,South,176,3.0,8.0,66,0.00,CLR,CLR,0.00,0.0,WeatherDisplay:10.37,2014-01-08 01:00:00,
2014-01-07 19:10:00,21.0,11.4,30.39,South,178,5.0,9.0,66,0.00,CLR,CLR,0.00,0.0,WeatherDisplay:10.37,2014-01-08 01:10:00,
2014-01-07 19:20:00,21.0,11.4,30.39,South,172,5.0,10.0,66,0.00,CLR,CLR,0.00,0.0,WeatherDisplay:10.37,2014-01-08 01:20:00,
2014-01-07 19:30:00,21.1,11.5,30.38,South,180,6.0,10.0,66,0.00,CLR,CLR,0.00,0.0,WeatherDisplay:10.37,2014-01-08 01:30:00,
2014-01-07 19:40:00,21.1,11.5,30.39,South,182,6.0,12.0,66,0.00,CLR,CLR,0.00,0.0,WeatherDisplay:10.37,2014-01-08 01:40:00,
2014-01-07 19:50:00,21.4,11.4,30.39,South,190,6.0,12.0,65,0.00,CLR,CLR,0.00,0.0,WeatherDisplay:10.37,2014-01-08 01:50:00,
2014-01-07 20:00:00,21.5,11.5,30.39,South,187,7.0,12.0,65,0.00,CLR,CLR,0.00,0.0,WeatherDisplay:10.37,2014-01-08 02:00:00,
2014-01-07 20:10:00,21.3,11.7,30.39,SSW,195,7.0,12.0,66,0.00,CLR,CLR,0.00,0.0,WeatherDisplay:10.37,2014-01-08 02:10:00,
2014-01-07 20:20:00,21.2,11.9,30.39,SSW,192,6.0,12.0,67,0.00,CLR,CLR,0.00,0.0,WeatherDisplay:10.37,2014-01-08 02:20:00,
2014-01-07 20:30:00,21.2,11.9,30.39,South,185,6.0,12.0,67,0.00,CLR,CLR,0.00,0.0,WeatherDisplay:10.37,2014-01-08 02:30:00,
2014-01-07 20:40:00,21.4,11.8,30.39,South,169,7.0,13.0,66,0.00,CLR,CLR,0.00,0.0,WeatherDisplay:10.37,2014-01-08 02:40:00,
2014-01-07 20:50:00,21.6,11.7,30.39,South,189,7.0,13.0,65,0.00,CLR,CLR,0.00,0.0,WeatherDisplay:10.37,2014-01-08 02:50:00,
2014-01-07 21:00:00,22.0,11.6,30.39,South,182,8.0,13.0,64,0.00,CLR,CLR,0.00,0.0,WeatherDisplay:10.37,2014-01-08 03:00:00,
2014-01-07 21:10:00,22.3,11.6,30.39,SSW,196,7.0,15.0,63,0.00,CLR,CLR,0.00,0.0,WeatherDisplay:10.37,2014-01-08 03:10:00,
2014-01-07 21:20:00,22.3,11.2,30.39,SSW,193,8.0,14.0,62,0.00,CLR,CLR,0.00,0.0,WeatherDisplay:10.37,2014-01-08 03:20:00,
2014-01-07 21:30:00,22.4,11.3,30.40,SSW,200,6.0,13.0,62,0.00,CLR,CLR,0.00,0.0,WeatherDisplay:10.37,2014-01-08 03:30:00,
2014-01-07 21:40:00,22.3,11.2,30.41,South,191,6.0,10.0,62,0.00,CLR,CLR,0.00,0.0,WeatherDisplay:10.37,2014-01-08 03:40:00,
2014-01-07 21:50:00,22.2,11.5,30.41,SSW,195,6.0,16.0,63,0.00,CLR,CLR,0.00,0.0,WeatherDisplay:10.37,2014-01-08 03:50:00,
2014-01-07 22:00:00,22.0,11.7,30.41,SSW,199,7.0,12.0,64,0.00,CLR,CLR,0.00,0.0,WeatherDisplay:10.37,2014-01-08 04:00:00,
2014-01-07 22:10:00,21.9,11.6,30.41,SSW,205,6.0,12.0,64,0.00,CLR,CLR,0.00,0.0,WeatherDisplay:10.37,2014-01-08 04:10:00,
2014-01-07 22:20:00,21.7,11.7,30.41,SSW,194,6.0,10.0,65,0.00,CLR,CLR,0.00,0.0,WeatherDisplay:10.37,2014-01-08 04:20:00,
2014-01-07 22:30:00,21.7,11.7,30.40,South,178,7.0,12.0,65,0.00,CLR,CLR,0.00,0.0,WeatherDisplay:10.37,2014-01-08 04:30:00,
2014-01-07 22:40:00,21.8,11.8,30.41,South,183,6.0,13.0,65,0.00,CLR,CLR,0.00,0.0,WeatherDisplay:10.37,2014-01-08 04:40:00,
2014-01-07 22:50:00,21.7,11.7,30.40,South,178,5.0,10.0,65,0.00,CLR,CLR,0.00,0.0,WeatherDisplay:10.37,2014-01-08 04:50:00,
2014-01-07 23:00:00,21.7,11.7,30.41,South,182,5.0,12.0,65,0.00,CLR,CLR,0.00,0.0,WeatherDisplay:10.37,2014-01-08 05:00:00,
2014-01-07 23:10:00,21.5,11.9,30.41,South,180,5.0,12.0,66,0.00,CLR,CLR,0.00,0.0,WeatherDisplay:10.37,2014-01-08 05:10:00,
2014-01-07 23:20:00,21.4,11.8,30.41,South,179,6.0,10.0,66,0.00,CLR,CLR,0.00,0.0,WeatherDisplay:10.37,2014-01-08 05:20:00,
2014-01-07 23:30:00,21.2,11.9,30.41,South,180,3.0,10.0,67,0.00,CLR,CLR,0.00,0.0,WeatherDisplay:10.37,2014-01-08 05:30:00,
2014-01-07 23:40:00,21.2,11.9,30.41,South,182,3.0,12.0,67,0.00,CLR,CLR,0.00,0.0,WeatherDisplay:10.37,2014-01-08 05:40:00,
2014-01-07 23:50:00,21.0,12.0,30.41,South,177,5.0,8.0,68,0.00,CLR,CLR,0.00,0.0,WeatherDisplay:10.37,2014-01-08 05:50:00,